Time,TemperatureF,DewpointF,PressureIn,WindDirection,WindDirectionDegrees,WindSpeedMPH,WindSpeedGustMPH,Humidity,HourlyPrecipIn,Conditions,Clouds,dailyrainin,SoftwareType,DateUTC
2013-06-13 00:02:00,74.0,-99.9,-100.00,WSW,248,7.0,9.0,-999,0.00,,,0.00,,2013-06-13 05:02:00,
2013-06-13 00:12:00,74.0,-99.9,-100.00,WSW,248,7.0,9.0,-999,0.00,,,0.00,,2013-06-13 05:12:00,
2013-06-13 00:24:00,74.0,-99.9,-100.00,WSW,248,7.0,9.0,-999,0.00,,,0.00,,2013-06-13 05:24:00,
2013-06-13 00:33:00,73.0,-99.9,-100.00,WNW,285,12.0,18.0,-999,0.00,,,0.00,,2013-06-13 05:33:00,
2013-06-13 00:43:00,73.0,-99.9,-100.00,WNW,285,12.0,18.0,-999,0.00,,,0.00,,2013-06-13 05:43:00,
2013-06-13 00:53:00,73.0,-99.9,-100.00,WNW,285,12.0,18.0,-999,0.00,,,0.00,,2013-06-13 05:53:00,
2013-06-13 01:02:00,71.0,-99.9,-100.00,West,270,6.0,9.0,-999,0.00,,,0.00,,2013-06-13 06:02:00,
2013-06-13 01:12:00,71.0,-99.9,-100.00,West,270,6.0,9.0,-999,0.00,,,0.00,,2013-06-13 06:12:00,
2013-06-13 01:22:00,71.0,-99.9,-100.00,West,270,6.0,9.0,-999,0.00,,,0.00,,2013-06-13 06:22:00,
2013-06-13 01:33:00,70.0,-99.9,-100.00,West,275,7.0,13.0,-999,0.00,,,0.00,,2013-06-13 06:33:00,
2013-06-13 01:44:00,70.0,-99.9,-100.00,West,275,7.0,13.0,-999,0.00,,,0.00,,2013-06-13 06:44:00,
2013-06-13 01:53:00,70.0,-99.9,-100.00,West,275,7.0,13.0,-999,0.00,,,0.00,,2013-06-13 06:53:00,
2013-06-13 02:02:00,69.0,-99.9,-100.00,WNW,287,3.0,8.0,-999,0.00,,,0.00,,2013-06-13 07:02:00,
2013-06-13 02:12:00,69.0,-99.9,-100.00,WNW,287,3.0,8.0,-999,0.00,,,0.00,,2013-06-13 07:12:00,
2013-06-13 02:22:00,69.0,-99.9,-100.00,WNW,287,3.0,8.0,-999,0.00,,,0.00,,2013-06-13 07:22:00,
2013-06-13 02:33:00,68.0,-99.9,-100.00,North,358,12.0,18.0,-999,0.00,,,0.00,,2013-06-13 07:33:00,
2013-06-13 02:43:00,68.0,-99.9,-100.00,North,358,12.0,18.0,-999,0.00,,,0.00,,2013-06-13 07:43:00,
2013-06-13 02:52:00,68.0,-99.9,-100.00,North,358,12.0,18.0,-999,0.00,,,0.00,,2013-06-13 07:52:00,
2013-06-13 03:02:00,67.0,-99.9,-100.00,North,353,13.0,17.0,-999,0.00,,,0.00,,2013-06-13 08:02:00,
2013-06-13 03:12:00,67.0,-99.9,-100.00,North,353,13.0,17.0,-999,0.00,,,0.00,,2013-06-13 08:12:00,
2013-06-13 03:22:00,67.0,-99.9,-100.00,North,353,13.0,17.0,-999,0.00,,,0.00,,2013-06-13 08:22:00,
2013-06-13 03:32:00,67.0,-99.9,-100.00,North,352,14.0,21.0,-999,0.00,,,0.00,,2013-06-13 08:32:00,
2013-06-13 03:43:00,67.0,-99.9,-100.00,North,352,14.0,21.0,-999,0.00,,,0.00,,2013-06-13 08:43:00,
2013-06-13 03:52:00,67.0,-99.9,-100.00,North,352,14.0,21.0,-999,0.00,,,0.00,,2013-06-13 08:52:00,
2013-06-13 04:02:00,67.0,-99.9,-100.00,North,351,12.0,19.0,-999,0.00,,,0.00,,2013-06-13 09:02:00,
2013-06-13 04:12:00,67.0,-99.9,-100.00,North,351,12.0,19.0,-999,0.00,,,0.00,,2013-06-13 09:12:00,
2013-06-13 04:22:00,67.0,-99.9,-100.00,North,351,12.0,19.0,-999,0.00,,,0.00,,2013-06-13 09:22:00,
2013-06-13 04:32:00,65.0,-99.9,-100.00,North,352,14.0,23.0,-999,0.00,,,0.00,,2013-06-13 09:32:00,
2013-06-13 04:42:00,65.0,-99.9,-100.00,North,352,14.0,23.0,-999,0.00,,,0.00,,2013-06-13 09:42:00,
2013-06-13 04:52:00,65.0,-99.9,-100.00,North,352,14.0,23.0,-999,0.00,,,0.00,,2013-06-13 09:52:00,
2013-06-13 05:02:00,65.0,-99.9,-100.00,North,352,10.0,16.0,-999,0.00,,,0.00,,2013-06-13 10:02:00,
2013-06-13 05:12:00,65.0,-99.9,-100.00,North,352,10.0,16.0,-999,0.00,,,0.00,,2013-06-13 10:12:00,
2013-06-13 05:22:00,65.0,-99.9,-100.00,North,352,10.0,16.0,-999,0.00,,,0.00,,2013-06-13 10:22:00,
2013-06-13 05:33:00,64.0,-99.9,-100.00,North,352,12.0,20.0,-999,0.00,,,0.00,,2013-06-13 10:33:00,
2013-06-13 05:43:00,64.0,-99.9,-100.00,North,352,12.0,20.0,-999,0.00,,,0.00,,2013-06-13 10:43:00,
2013-06-13 05:53:00,64.0,-99.9,-100.00,North,352,12.0,20.0,-999,0.00,,,0.00,,2013-06-13 10:53:00,
2013-06-13 06:02:00,63.0,-99.9,-100.00,NNW,339,8.0,12.0,-999,0.00,,,0.00,,2013-06-13 11:02:00,
2013-06-13 06:12:00,63.0,-99.9,-100.00,NNW,339,8.0,12.0,-999,0.00,,,0.00,,2013-06-13 11:12:00,
2013-06-13 06:24:00,63.0,-99.9,-100.00,NNW,339,8.0,12.0,-999,0.00,,,0.00,,2013-06-13 11:24:00,
2013-06-13 06:32:00,64.0,-99.9,-100.00,North,353,9.0,12.0,-999,0.00,,,0.00,,2013-06-13 11:32:00,
2013-06-13 06:43:00,64.0,-99.9,-100.00,North,353,9.0,12.0,-999,0.00,,,0.00,,2013-06-13 11:43:00,
2013-06-13 06:52:00,64.0,-99.9,-100.00,North,353,9.0,12.0,-999,0.00,,,0.00,,2013-06-13 11:52:00,
2013-06-13 07:02:00,63.0,-99.9,-100.00,NNW,332,8.0,13.0,-999,0.00,,,0.00,,2013-06-13 12:02:00,
2013-06-13 07:12:00,63.0,-99.9,-100.00,NNW,332,8.0,13.0,-999,0.00,,,0.00,,2013-06-13 12:12:00,
2013-06-13 07:23:00,63.0,-99.9,-100.00,NNW,332,8.0,13.0,-999,0.00,,,0.00,,2013-06-13 12:23:00,
2013-06-13 07:35:00,64.0,-99.9,-100.00,NNW,328,7.0,10.0,-999,0.00,,,0.00,,2013-06-13 12:35:00,
2013-06-13 07:43:00,64.0,-99.9,-100.00,NNW,328,7.0,10.0,-999,0.00,,,0.00,,2013-06-13 12:43:00,
2013-06-13 07:52:00,64.0,-99.9,-100.00,NNW,328,7.0,10.0,-999,0.00,,,0.00,,2013-06-13 12:52:00,
2013-06-13 08:02:00,66.0,-99.9,-100.00,North,10,7.0,10.0,-999,0.00,,,0.00,,2013-06-13 13:02:00,
2013-06-13 08:12:00,66.0,-99.9,-100.00,North,10,7.0,10.0,-999,0.00,,,0.00,,2013-06-13 13:12:00,
2013-06-13 08:22:00,66.0,-99.9,-100.00,North,10,7.0,10.0,-999,0.00,,,0.00,,2013-06-13 13:22:00,
2013-06-13 08:33:00,69.0,-99.9,-100.00,North,356,5.0,8.0,-999,0.00,,,0.00,,2013-06-13 13:33:00,
2013-06-13 08:43:00,69.0,-99.9,-100.00,North,356,5.0,8.0,-999,0.00,,,0.00,,2013-06-13 13:43:00,
2013-06-13 08:53:00,69.0,-99.9,-100.00,North,356,5.0,8.0,-999,0.00,,,0.00,,2013-06-13 13:53:00,
2013-06-13 09:02:00,69.0,-99.9,-100.00,North,354,7.0,10.0,-999,0.00,,,0.00,,2013-06-13 14:02:00,
2013-06-13 09:12:00,69.0,-99.9,-100.00,North,354,7.0,10.0,-999,0.00,,,0.00,,2013-06-13 14:12:00,
2013-06-13 09:22:00,69.0,-99.9,-100.00,North,354,7.0,10.0,-999,0.00,,,0.00,,2013-06-13 14:22:00,
2013-06-13 09:33:00,71.0,-99.9,-100.00,North,2,9.0,12.0,-999,0.00,,,0.00,,2013-06-13 14:33:00,
2013-06-13 09:43:00,71.0,-99.9,-100.00,North,2,9.0,12.0,-999,0.00,,,0.00,,2013-06-13 14:43:00,
2013-06-13 09:53:00,71.0,-99.9,-100.00,North,2,9.0,12.0,-999,0.00,,,0.00,,2013-06-13 14:53:00,
2013-06-13 10:02:00,73.0,-99.9,-100.00,North,8,7.0,11.0,-999,0.00,,,0.00,,2013-06-13 15:02:00,
2013-06-13 10:12:00,73.0,-99.9,-100.00,North,8,7.0,11.0,-999,0.00,,,0.00,,2013-06-13 15:12:00,
2013-06-13 10:22:00,73.0,-99.9,-100.00,North,8,7.0,11.0,-999,0.00,,,0.00,,2013-06-13 15:22:00,
2013-06-13 10:33:00,74.0,-99.9,-100.00,NNE,20,5.0,10.0,-999,0.00,,,0.00,,2013-06-13 15:33:00,
2013-06-13 10:43:00,74.0,-99.9,-100.00,NNE,20,5.0,10.0,-999,0.00,,,0.00,,2013-06-13 15:43:00,
2013-06-13 10:53:00,74.0,-99.9,-100.00,NNE,20,5.0,10.0,-999,0.00,,,0.00,,2013-06-13 15:53:00,
2013-06-13 11:02:00,74.0,-99.9,-100.00,NNE,26,7.0,11.0,-999,0.00,,,0.00,,2013-06-13 16:02:00,
2013-06-13 11:12:00,74.0,-99.9,-100.00,NNE,26,7.0,11.0,-999,0.00,,,0.00,,2013-06-13 16:12:00,
2013-06-13 11:22:00,74.0,-99.9,-100.00,NNE,26,7.0,11.0,-999,0.00,,,0.00,,2013-06-13 16:22:00,
2013-06-13 11:34:00,76.0,-99.9,-100.00,NE,49,3.0,8.0,-999,0.00,,,0.00,,2013-06-13 16:34:00,
2013-06-13 11:43:00,76.0,-99.9,-100.00,NE,49,3.0,8.0,-999,0.00,,,0.00,,2013-06-13 16:43:00,
2013-06-13 11:54:00,76.0,-99.9,-100.00,NE,49,3.0,8.0,-999,0.00,,,0.00,,2013-06-13 16:54:00,
2013-06-13 12:02:00,77.0,-99.9,-100.00,ENE,63,5.0,9.0,-999,0.00,,,0.00,,2013-06-13 17:02:00,
2013-06-13 12:12:00,77.0,-99.9,-100.00,ENE,63,5.0,9.0,-999,0.00,,,0.00,,2013-06-13 17:12:00,
2013-06-13 12:25:00,77.0,-99.9,-100.00,ENE,63,5.0,9.0,-999,0.00,,,0.00,,2013-06-13 17:25:00,
2013-06-13 12:33:00,79.0,-99.9,-100.00,NE,50,3.0,7.0,-999,0.00,,,0.00,,2013-06-13 17:33:00,
2013-06-13 12:43:00,79.0,-99.9,-100.00,NE,50,3.0,7.0,-999,0.00,,,0.00,,2013-06-13 17:43:00,
2013-06-13 12:53:00,79.0,-99.9,-100.00,NE,50,3.0,7.0,-999,0.00,,,0.00,,2013-06-13 17:53:00,
2013-06-13 13:02:00,78.0,-99.9,-100.00,NE,42,3.0,8.0,-999,0.00,,,0.00,,2013-06-13 18:02:00,
2013-06-13 13:12:00,78.0,-99.9,-100.00,NE,42,3.0,8.0,-999,0.00,,,0.00,,2013-06-13 18:12:00,
2013-06-13 13:22:00,78.0,-99.9,-100.00,NE,42,3.0,8.0,-999,0.00,,,0.00,,2013-06-13 18:22:00,
2013-06-13 13:33:00,79.0,-99.9,-100.00,NNE,13,5.0,11.0,-999,0.00,,,0.00,,2013-06-13 18:33:00,
2013-06-13 13:43:00,79.0,-99.9,-100.00,NNE,13,5.0,11.0,-999,0.00,,,0.00,,2013-06-13 18:43:00,
2013-06-13 13:52:00,79.0,-99.9,-100.00,NNE,13,5.0,11.0,-999,0.00,,,0.00,,2013-06-13 18:52:00,
2013-06-13 14:02:00,81.0,-99.9,-100.00,NW,318,5.0,9.0,-999,0.00,,,-99.99,,2013-06-13 19:02:00,
2013-06-13 14:11:00,81.0,-99.9,-100.00,NW,318,5.0,9.0,-999,0.00,,,-99.99,,2013-06-13 19:11:00,
2013-06-13 14:23:00,81.0,-99.9,-100.00,NW,318,5.0,9.0,-999,0.00,,,-99.99,,2013-06-13 19:23:00,
2013-06-13 14:33:00,80.0,-99.9,-100.00,NNW,340,7.0,13.0,-999,0.00,,,0.00,,2013-06-13 19:33:00,
2013-06-13 14:43:00,80.0,-99.9,-100.00,NNW,340,7.0,13.0,-999,0.00,,,0.00,,2013-06-13 19:43:00,
2013-06-13 14:53:00,80.0,-99.9,-100.00,NNW,340,7.0,13.0,-999,0.00,,,0.00,,2013-06-13 19:53:00,
2013-06-13 15:02:00,81.0,-99.9,-100.00,NNE,24,4.0,9.0,-999,0.00,,,0.00,,2013-06-13 20:02:00,
2013-06-13 15:12:00,81.0,-99.9,-100.00,NNE,24,4.0,9.0,-999,0.00,,,0.00,,2013-06-13 20:12:00,
2013-06-13 15:22:00,81.0,-99.9,-100.00,NNE,24,4.0,9.0,-999,0.00,,,0.00,,2013-06-13 20:22:00,
2013-06-13 15:33:00,79.0,-99.9,-100.00,North,1,7.0,13.0,-999,0.00,,,0.00,,2013-06-13 20:33:00,
2013-06-13 15:44:00,79.0,-99.9,-100.00,North,1,7.0,13.0,-999,0.00,,,0.00,,2013-06-13 20:44:00,
2013-06-13 15:53:00,79.0,-99.9,-100.00,North,1,7.0,13.0,-999,0.00,,,0.00,,2013-06-13 20:53:00,
2013-06-13 16:02:00,79.0,-99.9,-100.00,North,354,9.0,18.0,-999,0.00,,,0.00,,2013-06-13 21:02:00,
2013-06-13 16:12:00,79.0,-99.9,-100.00,North,354,9.0,18.0,-999,0.00,,,0.00,,2013-06-13 21:12:00,
2013-06-13 16:22:00,79.0,-99.9,-100.00,North,354,9.0,18.0,-999,0.00,,,0.00,,2013-06-13 21:22:00,
2013-06-13 16:34:00,81.0,-99.9,-100.00,North,5,7.0,11.0,-999,0.00,,,0.00,,2013-06-13 21:34:00,
2013-06-13 16:43:00,81.0,-99.9,-100.00,North,5,7.0,11.0,-999,0.00,,,0.00,,2013-06-13 21:43:00,
2013-06-13 16:52:00,81.0,-99.9,-100.00,North,5,7.0,11.0,-999,0.00,,,0.00,,2013-06-13 21:52:00,
2013-06-13 17:02:00,82.0,-99.9,-100.00,NNE,18,9.0,14.0,-999,0.00,,,0.00,,2013-06-13 22:02:00,
2013-06-13 17:11:00,82.0,-99.9,-100.00,NNE,18,9.0,14.0,-999,0.00,,,0.00,,2013-06-13 22:11:00,
2013-06-13 17:22:00,82.0,-99.9,-100.00,NNE,18,9.0,14.0,-999,0.00,,,0.00,,2013-06-13 22:22:00,
2013-06-13 17:33:00,81.0,-99.9,-100.00,North,356,8.0,11.0,-999,0.00,,,0.00,,2013-06-13 22:33:00,
2013-06-13 17:43:00,81.0,-99.9,-100.00,North,356,8.0,11.0,-999,0.00,,,0.00,,2013-06-13 22:43:00,
2013-06-13 17:52:00,81.0,-99.9,-100.00,North,356,8.0,11.0,-999,0.00,,,0.00,,2013-06-13 22:52:00,
2013-06-13 18:02:00,80.0,-99.9,-100.00,NW,322,7.0,11.0,-999,0.00,,,0.00,,2013-06-13 23:02:00,
2013-06-13 18:12:00,80.0,-99.9,-100.00,NW,322,7.0,11.0,-999,0.00,,,0.00,,2013-06-13 23:12:00,
2013-06-13 18:22:00,80.0,-99.9,-100.00,NW,322,7.0,11.0,-999,0.00,,,0.00,,2013-06-13 23:22:00,
2013-06-13 18:32:00,81.0,-99.9,-100.00,NW,307,5.0,10.0,-999,0.00,,,0.00,,2013-06-13 23:32:00,
2013-06-13 18:43:00,81.0,-99.9,-100.00,NW,307,5.0,10.0,-999,0.00,,,0.00,,2013-06-13 23:43:00,
2013-06-13 18:53:00,81.0,-99.9,-100.00,NW,307,5.0,10.0,-999,0.00,,,0.00,,2013-06-13 23:53:00,
2013-06-13 19:02:00,81.0,-99.9,-100.00,North,5,6.0,11.0,-999,0.00,,,0.00,,2013-06-14 00:02:00,
2013-06-13 19:12:00,81.0,-99.9,-100.00,North,5,6.0,11.0,-999,0.00,,,0.00,,2013-06-14 00:12:00,
2013-06-13 19:22:00,81.0,-99.9,-100.00,North,5,6.0,11.0,-999,0.00,,,0.00,,2013-06-14 00:22:00,
2013-06-13 19:34:00,81.0,-99.9,-100.00,NW,306,6.0,10.0,-999,0.00,,,0.00,,2013-06-14 00:34:00,
2013-06-13 19:43:00,81.0,-99.9,-100.00,NW,306,6.0,10.0,-999,0.00,,,0.00,,2013-06-14 00:43:00,
2013-06-13 19:53:00,81.0,-99.9,-100.00,NW,306,6.0,10.0,-999,0.00,,,0.00,,2013-06-14 00:53:00,
2013-06-13 20:02:00,80.0,-99.9,-100.00,NNW,342,6.0,9.0,-999,0.00,,,0.00,,2013-06-14 01:02:00,
2013-06-13 20:12:00,80.0,-99.9,-100.00,NNW,342,6.0,9.0,-999,0.00,,,0.00,,2013-06-14 01:12:00,
2013-06-13 20:22:00,80.0,-99.9,-100.00,NNW,342,6.0,9.0,-999,0.00,,,0.00,,2013-06-14 01:22:00,
2013-06-13 20:33:00,79.0,-99.9,-100.00,North,10,6.0,12.0,-999,0.00,,,0.00,,2013-06-14 01:33:00,
2013-06-13 20:43:00,79.0,-99.9,-100.00,North,10,6.0,12.0,-999,0.00,,,0.00,,2013-06-14 01:43:00,
2013-06-13 20:53:00,79.0,-99.9,-100.00,North,10,6.0,12.0,-999,0.00,,,0.00,,2013-06-14 01:53:00,
2013-06-13 21:02:00,77.0,-99.9,-100.00,North,5,4.0,7.0,-999,0.00,,,0.00,,2013-06-14 02:02:00,
2013-06-13 21:11:00,77.0,-99.9,-100.00,North,5,4.0,7.0,-999,0.00,,,0.00,,2013-06-14 02:11:00,
2013-06-13 21:22:00,77.0,-99.9,-100.00,North,5,4.0,7.0,-999,0.00,,,0.00,,2013-06-14 02:22:00,
2013-06-13 21:33:00,75.0,-99.9,-100.00,North,5,4.0,7.0,-999,0.00,,,0.00,,2013-06-14 02:33:00,
2013-06-13 21:43:00,75.0,-99.9,-100.00,North,5,4.0,7.0,-999,0.00,,,0.00,,2013-06-14 02:43:00,
2013-06-13 21:53:00,75.0,-99.9,-100.00,North,5,4.0,7.0,-999,0.00,,,0.00,,2013-06-14 02:53:00,
2013-06-13 22:02:00,73.0,-99.9,-100.00,NNE,13,4.0,7.0,-999,0.00,,,0.00,,2013-06-14 03:02:00,
2013-06-13 22:12:00,73.0,-99.9,-100.00,NNE,13,4.0,7.0,-999,0.00,,,0.00,,2013-06-14 03:12:00,
2013-06-13 22:22:00,73.0,-99.9,-100.00,NNE,13,4.0,7.0,-999,0.00,,,0.00,,2013-06-14 03:22:00,
2013-06-13 22:30:00,71.0,-99.9,-100.00,NNE,16,5.0,7.0,-999,0.00,,,0.00,,2013-06-14 03:30:00,
2013-06-13 22:34:00,72.0,-99.9,-100.00,NNE,18,5.0,7.0,-999,0.00,,,0.00,,2013-06-14 03:34:00,
2013-06-13 22:43:00,72.0,-99.9,-100.00,NNE,18,5.0,7.0,-999,0.00,,,0.00,,2013-06-14 03:43:00,
2013-06-13 22:53:00,72.0,-99.9,-100.00,NNE,18,5.0,7.0,-999,0.00,,,0.00,,2013-06-14 03:53:00,
2013-06-13 23:02:00,71.0,-99.9,-100.00,NNE,16,5.0,7.0,-999,0.00,,,0.00,,2013-06-14 04:02:00,
2013-06-13 23:12:00,71.0,-99.9,-100.00,NNE,16,5.0,7.0,-999,0.00,,,0.00,,2013-06-14 04:12:00,
2013-06-13 23:23:00,71.0,-99.9,-100.00,NNE,16,5.0,7.0,-999,0.00,,,0.00,,2013-06-14 04:23:00,
2013-06-13 23:30:00,71.0,-99.9,-100.00,NNE,21,6.0,9.0,-999,0.00,,,0.00,,2013-06-14 04:30:00,